Time;durP1;ratioP1;P1;durP2;ratioP2;P2;SDS_P1;SDS_P2;PMS_P1;PMS_P2;Temp;Humidity;BMP_temperature;BMP_pressure;BME280_temperature;BME280_humidity;BME280_pressure;Samples;Min_cycle;Max_cycle;Signal;HPM_P1;HPM_P2
2022/09/12 00:01:52;;;;;;;8.15;3.50;;;11.20;99.90;;;;;;5029432;28;20395;-79
2022/09/12 00:04:18;;;;;;;7.88;3.72;;;11.20;99.90;;;;;;5029477;28;20070;-79
2022/09/12 00:06:44;;;;;;;6.28;3.42;;;11.20;99.90;;;;;;5033476;28;20493;-80
2022/09/12 00:09:12;;;;;;;4.07;3.40;;;11.20;99.90;;;;;;5033505;28;20041;-80
2022/09/12 00:11:39;;;;;;;7.15;3.50;;;11.10;99.90;;;;;;5033306;28;20128;-80
2022/09/12 00:14:08;;;;;;;7.55;3.30;;;11.10;99.90;;;;;;5033378;28;20096;-79
2022/09/12 00:16:35;;;;;;;4.28;3.42;;;11.10;99.90;;;;;;5032419;28;20429;-80
2022/09/12 00:19:02;;;;;;;6.10;3.22;;;11.10;99.90;;;;;;5031825;28;20030;-80
2022/09/12 00:21:27;;;;;;;4.47;2.83;;;11.00;99.90;;;;;;5031316;28;20033;-79
2022/09/12 00:23:53;;;;;;;5.50;3.75;;;11.00;99.90;;;;;;5030967;28;20348;-80
2022/09/12 00:26:20;;;;;;;6.85;3.67;;;11.00;99.90;;;;;;5030137;28;20036;-80
2022/09/12 00:28:46;;;;;;;7.22;3.53;;;11.00;99.90;;;;;;5028993;28;20576;-79
2022/09/12 00:31:16;;;;;;;4.20;3.30;;;11.00;99.90;;;;;;5030424;28;20040;-76
2022/09/12 00:33:42;;;;;;;8.15;3.38;;;11.00;99.90;;;;;;5030208;28;20057;-76
2022/09/12 00:36:14;;;;;;;5.75;3.28;;;11.00;99.90;;;;;;5029797;28;20090;-76
2022/09/12 00:38:40;;;;;;;4.47;3.13;;;11.00;99.90;;;;;;5030275;28;20040;-76
2022/09/12 00:41:12;;;;;;;5.00;3.13;;;11.00;99.90;;;;;;5029572;28;20029;-76
2022/09/12 00:43:39;;;;;;;4.05;3.22;;;11.00;99.90;;;;;;5029623;28;20025;-76
2022/09/12 00:46:16;;;;;;;4.03;2.95;;;11.00;99.90;;;;;;5029500;28;20036;-76
2022/09/12 00:48:50;;;;;;;7.72;3.10;;;10.90;99.90;;;;;;5029527;28;20477;-76
2022/09/12 00:51:17;;;;;;;5.32;3.35;;;10.90;99.90;;;;;;5029772;28;20132;-77
2022/09/12 00:53:44;;;;;;;5.60;3.30;;;10.90;99.90;;;;;;5028178;28;20393;-76
2022/09/12 00:56:14;;;;;;;3.45;2.83;;;10.80;99.90;;;;;;5027513;28;20049;-76
2022/09/12 00:58:48;;;;;;;4.45;2.70;;;10.80;99.90;;;;;;5027813;28;20029;-76
2022/09/12 01:01:14;;;;;;;5.97;2.67;;;10.70;99.90;;;;;;5027811;28;20436;-76
2022/09/12 01:03:39;;;;;;;3.97;2.70;;;10.70;99.90;;;;;;5027634;28;20033;-76
2022/09/12 01:06:17;;;;;;;3.83;3.10;;;10.70;99.90;;;;;;5028062;28;20872;-76
2022/09/12 01:08:45;;;;;;;4.35;2.50;;;10.60;99.90;;;;;;5027212;28;20036;-76
2022/09/12 01:11:12;;;;;;;4.78;3.05;;;10.60;99.90;;;;;;5027548;28;20034;-76
2022/09/12 01:13:38;;;;;;;3.35;2.90;;;10.60;99.90;;;;;;5027119;28;20060;-76
2022/09/12 01:16:05;;;;;;;3.30;3.00;;;10.70;99.90;;;;;;5029109;28;20061;-77
2022/09/12 01:19:07;;;;;;;5.68;3.10;;;10.60;99.90;;;;;;5028619;28;20490;-76
2022/09/12 01:21:55;;;;;;;6.85;3.05;;;10.60;99.90;;;;;;5028248;28;20385;-76
2022/09/12 01:24:37;;;;;;;5.07;2.75;;;10.50;99.90;;;;;;5028650;28;20040;-76
2022/09/12 01:27:27;;;;;;;4.97;2.80;;;10.50;99.90;;;;;;5028647;28;20433;-76
2022/09/12 01:30:05;;;;;;;3.58;2.80;;;10.50;99.90;;;;;;5028698;28;20083;-79
2022/09/12 01:32:59;;;;;;;5.38;2.92;;;10.50;99.90;;;;;;5027326;28;20124;-79
2022/09/12 01:35:49;;;;;;;5.07;2.70;;;10.40;99.90;;;;;;5025736;28;20410;-79
2022/09/12 01:38:18;;;;;;;7.00;2.58;;;10.40;99.90;;;;;;5027105;28;20029;-79
2022/09/12 01:41:17;;;;;;;4.05;2.80;;;10.40;99.90;;;;;;5027604;28;20095;-79
2022/09/12 01:43:52;;;;;;;4.38;2.80;;;10.40;99.90;;;;;;5027315;28;20501;-79
2022/09/12 01:46:30;;;;;;;2.90;2.60;;;10.40;99.90;;;;;;5027302;28;20049;-79
2022/09/12 01:49:15;;;;;;;4.00;2.70;;;10.30;99.90;;;;;;5027409;28;20029;-79
2022/09/12 01:51:47;;;;;;;2.40;2.20;;;10.30;99.90;;;;;;5027226;28;20029;-79
2022/09/12 01:54:22;;;;;;;3.90;2.75;;;10.30;99.90;;;;;;5027961;28;20052;-79
2022/09/12 01:56:51;;;;;;;3.63;2.70;;;10.20;99.90;;;;;;5027145;28;20445;-79
2022/09/12 01:59:32;;;;;;;4.30;2.75;;;10.20;99.90;;;;;;5029780;28;20136;-79
2022/09/12 02:02:19;;;;;;;5.07;2.90;;;10.20;99.90;;;;;;5031138;28;20029;-79
2022/09/12 02:04:58;;;;;;;4.15;2.92;;;10.20;99.90;;;;;;5031837;28;20033;-79
2022/09/12 02:07:43;;;;;;;4.47;2.60;;;10.20;99.90;;;;;;5031190;28;20091;-79
2022/09/12 02:10:24;;;;;;;4.57;2.70;;;10.10;99.90;;;;;;5030838;28;20032;-79
2022/09/12 02:12:58;;;;;;;4.45;2.67;;;10.10;99.90;;;;;;5030545;28;20392;-79
2022/09/12 02:15:33;;;;;;;3.72;2.97;;;10.10;99.90;;;;;;5030913;28;20056;-79
2022/09/12 02:18:03;;;;;;;3.20;2.80;;;10.10;99.90;;;;;;5030658;28;20034;-79
2022/09/12 02:20:32;;;;;;;4.53;3.13;;;10.10;99.90;;;;;;5031081;28;20253;-79
2022/09/12 02:23:00;;;;;;;4.18;3.17;;;10.10;99.90;;;;;;5030916;28;20022;-79
2022/09/12 02:25:28;;;;;;;4.93;3.13;;;10.10;99.90;;;;;;5031179;28;20075;-79
2022/09/12 02:28:26;;;;;;;3.90;3.20;;;10.00;99.90;;;;;;5030428;28;20022;-79
2022/09/12 02:31:14;;;;;;;5.55;3.45;;;10.00;99.90;;;;;;5029787;28;20064;-79
2022/09/12 02:33:48;;;;;;;4.93;3.20;;;10.00;99.90;;;;;;5031077;28;20024;-79
2022/09/12 02:36:53;;;;;;;5.00;3.00;;;10.00;99.90;;;;;;5028701;28;20021;-79
2022/09/12 02:39:19;;;;;;;4.40;2.92;;;10.00;99.90;;;;;;5030236;28;20079;-79
2022/09/12 02:41:56;;;;;;;3.30;3.00;;;9.90;99.90;;;;;;5029962;28;20029;-79
2022/09/12 02:44:24;;;;;;;4.22;2.95;;;9.90;99.90;;;;;;5030258;28;20056;-79
2022/09/12 02:46:54;;;;;;;4.10;2.50;;;9.90;99.90;;;;;;5030553;28;20033;-79
2022/09/12 02:49:21;;;;;;;3.63;2.35;;;9.90;99.90;;;;;;5030060;28;20505;-79
2022/09/12 02:51:47;;;;;;;3.73;3.00;;;9.90;99.90;;;;;;5030345;28;20524;-79
2022/09/12 02:54:15;;;;;;;3.33;2.40;;;9.90;99.90;;;;;;5030353;28;20025;-79
2022/09/12 02:56:42;;;;;;;3.30;2.70;;;9.80;99.90;;;;;;5030686;28;20037;-79
2022/09/12 02:59:11;;;;;;;3.00;2.50;;;9.80;99.90;;;;;;5030275;28;20075;-79
2022/09/12 03:01:48;;;;;;;4.75;2.60;;;9.80;99.90;;;;;;5029918;28;20022;-79
2022/09/12 03:04:22;;;;;;;4.03;2.58;;;9.80;99.90;;;;;;5030055;28;20017;-79
2022/09/12 03:07:00;;;;;;;3.53;2.40;;;9.80;99.90;;;;;;5030015;28;20045;-79
2022/09/12 03:09:46;;;;;;;8.65;2.40;;;9.80;99.90;;;;;;5029448;28;20390;-79
2022/09/12 03:12:38;;;;;;;3.08;2.40;;;9.80;99.90;;;;;;5029338;28;20036;-79
2022/09/12 03:15:11;;;;;;;4.43;2.50;;;9.80;99.90;;;;;;5029673;28;20021;-79
2022/09/12 03:18:09;;;;;;;3.38;2.40;;;9.70;99.90;;;;;;5029748;28;20025;-79
2022/09/12 03:20:34;;;;;;;3.08;2.58;;;9.70;99.90;;;;;;5029552;28;20033;-79
2022/09/12 03:23:09;;;;;;;3.97;2.30;;;9.70;99.90;;;;;;5029666;28;20474;-79
2022/09/12 03:25:41;;;;;;;4.85;2.50;;;9.70;99.90;;;;;;5029832;28;20087;-79
2022/09/12 03:28:18;;;;;;;3.50;2.33;;;9.70;99.90;;;;;;5029992;28;20025;-79
2022/09/12 03:30:46;;;;;;;6.10;3.17;;;9.70;99.90;;;;;;5029492;28;20032;-79
2022/09/12 03:33:18;;;;;;;3.33;2.30;;;9.70;99.90;;;;;;5030139;28;20034;-79
2022/09/12 03:35:44;;;;;;;4.20;2.30;;;9.70;99.90;;;;;;5030059;28;20013;-79
2022/09/12 03:38:09;;;;;;;3.60;2.33;;;9.70;99.90;;;;;;5029388;28;20041;-78
2022/09/12 03:40:36;;;;;;;5.90;2.50;;;9.70;99.90;;;;;;5029687;28;20026;-78
2022/09/12 03:43:03;;;;;;;2.90;2.23;;;9.70;99.90;;;;;;5029738;28;20029;-79
2022/09/12 03:45:28;;;;;;;4.30;2.30;;;9.60;99.90;;;;;;5029383;28;20100;-79
2022/09/12 03:47:54;;;;;;;5.40;2.57;;;9.60;99.90;;;;;;5028780;28;20104;-79
2022/09/12 03:50:20;;;;;;;4.20;2.03;;;9.60;99.90;;;;;;5029771;28;20032;-78
2022/09/12 03:52:45;;;;;;;4.00;2.43;;;9.60;99.90;;;;;;5028575;28;20045;-79
2022/09/12 03:55:11;;;;;;;3.40;2.17;;;9.50;99.90;;;;;;5029291;28;20057;-79
2022/09/12 03:57:37;;;;;;;4.13;2.30;;;9.50;99.90;;;;;;5029537;28;20048;-79
2022/09/12 04:00:04;;;;;;;4.30;2.27;;;9.50;99.90;;;;;;5029416;28;20103;-79
2022/09/12 04:02:30;;;;;;;2.40;2.00;;;9.50;99.90;;;;;;5028621;28;20049;-78
2022/09/12 04:04:56;;;;;;;5.07;2.70;;;9.50;99.90;;;;;;5028999;28;20157;-78
2022/09/12 04:07:21;;;;;;;3.07;2.37;;;9.40;99.90;;;;;;5029074;28;20075;-78
2022/09/12 04:09:47;;;;;;;2.90;2.60;;;9.40;99.90;;;;;;5028571;28;20525;-79
2022/09/12 04:12:12;;;;;;;4.33;2.70;;;9.40;99.90;;;;;;5028180;28;20026;-79
2022/09/12 04:14:38;;;;;;;2.70;2.40;;;9.40;99.90;;;;;;5028898;28;20057;-79
2022/09/12 04:17:04;;;;;;;3.93;2.53;;;9.40;99.90;;;;;;5029116;28;20152;-79
2022/09/12 04:19:30;;;;;;;3.50;2.43;;;9.40;99.90;;;;;;5028921;28;20073;-79
2022/09/12 04:21:55;;;;;;;6.53;2.97;;;9.30;99.90;;;;;;5027879;28;20031;-79
2022/09/12 04:24:21;;;;;;;3.15;2.53;;;9.30;99.90;;;;;;5028348;28;20029;-79
2022/09/12 04:26:46;;;;;;;3.47;2.57;;;9.30;99.90;;;;;;5027103;28;20033;-78
2022/09/12 04:29:13;;;;;;;4.60;2.80;;;9.30;99.90;;;;;;5028277;28;20061;-79
2022/09/12 04:31:40;;;;;;;3.10;2.60;;;9.30;99.90;;;;;;5028464;28;20164;-79
2022/09/12 04:34:05;;;;;;;4.70;2.50;;;9.20;99.90;;;;;;5028286;28;20036;-78
2022/09/12 04:36:33;;;;;;;3.30;2.67;;;9.20;99.90;;;;;;5028117;28;20406;-79
2022/09/12 04:38:59;;;;;;;6.80;2.87;;;9.20;99.90;;;;;;5028567;28;20036;-79
2022/09/12 04:41:28;;;;;;;5.70;2.47;;;9.20;99.90;;;;;;5028246;28;20116;-79
2022/09/12 04:44:03;;;;;;;5.33;2.70;;;9.20;99.90;;;;;;5028201;28;20036;-79
2022/09/12 04:46:31;;;;;;;5.07;2.63;;;9.20;99.90;;;;;;5027527;28;20030;-79
2022/09/12 04:48:56;;;;;;;3.93;2.50;;;9.20;99.90;;;;;;5028053;28;20037;-78
2022/09/12 04:51:26;;;;;;;5.90;2.00;;;9.10;99.90;;;;;;5028876;28;20026;-78
2022/09/12 04:53:53;;;;;;;3.53;2.60;;;9.10;99.90;;;;;;5028042;28;20033;-79
2022/09/12 04:56:20;;;;;;;4.20;2.60;;;9.10;99.90;;;;;;5027551;28;20583;-79
2022/09/12 04:58:46;;;;;;;4.40;2.20;;;9.00;99.90;;;;;;5027846;28;20028;-79
2022/09/12 05:01:14;;;;;;;3.60;2.37;;;9.00;99.90;;;;;;5027972;28;20175;-78
2022/09/12 05:03:44;;;;;;;4.50;2.13;;;9.00;99.90;;;;;;5027916;28;20482;-79
2022/09/12 05:06:13;;;;;;;5.00;2.40;;;9.00;99.90;;;;;;5027333;28;20052;-78
2022/09/12 05:08:39;;;;;;;4.43;2.27;;;9.00;99.90;;;;;;5027387;28;20025;-78
2022/09/12 05:11:09;;;;;;;4.00;2.50;;;9.00;99.90;;;;;;5027267;28;20065;-78
2022/09/12 05:13:34;;;;;;;5.30;2.50;;;9.00;99.90;;;;;;5027799;28;20021;-78
2022/09/12 05:16:02;;;;;;;2.40;2.10;;;9.00;99.90;;;;;;5027020;28;20036;-79
2022/09/12 05:18:30;;;;;;;2.53;2.17;;;9.00;99.90;;;;;;5027780;28;20068;-78
2022/09/12 05:20:58;;;;;;;2.67;2.10;;;9.10;99.90;;;;;;5027874;28;20025;-79
2022/09/12 05:23:24;;;;;;;2.70;2.20;;;9.10;99.90;;;;;;5027632;28;20052;-78
2022/09/12 05:25:51;;;;;;;4.50;2.20;;;9.10;99.90;;;;;;5028074;28;20532;-78
2022/09/12 05:28:17;;;;;;;4.67;2.80;;;9.10;99.90;;;;;;5027341;28;20030;-78
2022/09/12 05:30:43;;;;;;;3.00;2.60;;;9.10;99.90;;;;;;5027366;28;20398;-78
2022/09/12 05:33:08;;;;;;;4.77;2.37;;;9.10;99.90;;;;;;5027147;28;20366;-78
2022/09/12 05:35:34;;;;;;;4.10;2.10;;;9.20;99.90;;;;;;5027212;28;20596;-79
2022/09/12 05:37:59;;;;;;;2.13;1.93;;;9.20;99.90;;;;;;5027244;28;20026;-78
2022/09/12 05:40:25;;;;;;;4.73;2.03;;;9.20;99.90;;;;;;5027433;28;20401;-79
2022/09/12 05:42:50;;;;;;;1.90;1.70;;;9.30;99.90;;;;;;5027015;28;20030;-78
2022/09/12 05:45:16;;;;;;;2.60;2.27;;;9.40;99.90;;;;;;5027359;28;20026;-79
2022/09/12 05:47:42;;;;;;;3.60;1.90;;;9.40;99.90;;;;;;5028016;28;20557;-79
2022/09/12 05:50:09;;;;;;;3.10;1.90;;;9.50;99.90;;;;;;5027957;28;20546;-79
2022/09/12 05:52:36;;;;;;;5.63;2.30;;;9.60;99.90;;;;;;5028552;28;20033;-79
2022/09/12 05:55:02;;;;;;;4.60;2.20;;;9.60;99.90;;;;;;5027206;28;20030;-79
2022/09/12 05:57:28;;;;;;;3.47;2.30;;;9.70;99.90;;;;;;5027221;28;20049;-78
2022/09/12 05:59:53;;;;;;;4.93;2.40;;;9.80;99.90;;;;;;5027784;28;20424;-79
2022/09/12 06:02:19;;;;;;;3.78;1.80;;;9.90;99.90;;;;;;5027621;28;20034;-79
2022/09/12 06:04:45;;;;;;;2.90;2.20;;;9.90;99.90;;;;;;5026767;28;20029;-79
2022/09/12 06:07:11;;;;;;;2.40;2.10;;;10.00;99.90;;;;;;5027820;28;20037;-79
2022/09/12 06:09:36;;;;;;;3.75;2.13;;;10.00;99.90;;;;;;5027058;28;20152;-79
2022/09/12 06:12:02;;;;;;;2.93;2.33;;;10.10;99.90;;;;;;5027362;28;20040;-79
2022/09/12 06:14:28;;;;;;;3.72;2.30;;;10.20;99.90;;;;;;5026841;28;20147;-79
2022/09/12 06:16:53;;;;;;;2.78;2.10;;;10.30;99.90;;;;;;5027490;28;20108;-79
2022/09/12 06:19:22;;;;;;;5.80;2.20;;;10.40;99.90;;;;;;5027071;28;20536;-79
2022/09/12 06:21:48;;;;;;;3.95;2.10;;;10.50;99.90;;;;;;5027573;28;20415;-79
2022/09/12 06:24:18;;;;;;;4.55;2.40;;;10.60;99.90;;;;;;5026772;28;20034;-79
2022/09/12 06:26:45;;;;;;;2.40;2.20;;;10.60;99.90;;;;;;5026839;28;20030;-79
2022/09/12 06:29:11;;;;;;;3.00;2.17;;;10.70;99.90;;;;;;5026935;28;20045;-79
2022/09/12 06:31:38;;;;;;;5.72;2.78;;;10.80;99.90;;;;;;5025255;28;20496;-78
2022/09/12 06:34:07;;;;;;;4.55;3.05;;;10.90;99.90;;;;;;5027131;28;20026;-79
2022/09/12 06:36:36;;;;;;;5.10;2.78;;;11.00;99.90;;;;;;5027307;28;20510;-79
2022/09/12 06:39:06;;;;;;;4.40;2.53;;;11.10;99.90;;;;;;5026908;28;20026;-76
2022/09/12 06:41:32;;;;;;;5.35;2.70;;;11.20;99.90;;;;;;5027562;28;20584;-76
2022/09/12 06:43:59;;;;;;;2.90;2.20;;;11.30;99.90;;;;;;5027673;28;20049;-76
2022/09/12 06:46:25;;;;;;;3.38;2.20;;;11.30;99.90;;;;;;5030465;28;20029;-76
2022/09/12 06:48:51;;;;;;;5.47;2.35;;;11.40;99.90;;;;;;5030028;28;20090;-75
2022/09/12 06:51:19;;;;;;;2.67;2.20;;;11.50;99.90;;;;;;5030116;28;20381;-76
2022/09/12 06:53:46;;;;;;;3.60;2.45;;;11.60;99.90;;;;;;5029767;28;20037;-75
2022/09/12 06:56:14;;;;;;;4.30;2.38;;;11.70;99.90;;;;;;5029787;28;20383;-75
2022/09/12 06:58:41;;;;;;;2.30;2.10;;;11.80;99.90;;;;;;5030069;28;20462;-76
2022/09/12 07:01:17;;;;;;;3.55;2.15;;;11.90;99.90;;;;;;5029443;28;20087;-75
2022/09/12 07:03:50;;;;;;;4.90;2.20;;;11.90;99.90;;;;;;5029777;28;20039;-75
2022/09/12 07:06:19;;;;;;;8.30;2.10;;;12.10;99.90;;;;;;5029071;28;20064;-75
2022/09/12 07:08:45;;;;;;;2.80;2.20;;;12.20;99.90;;;;;;5029689;28;20128;-75
2022/09/12 07:11:18;;;;;;;3.20;1.92;;;12.30;99.90;;;;;;5029475;28;20038;-75
2022/09/12 07:13:46;;;;;;;3.60;2.30;;;12.40;99.90;;;;;;5029442;28;20358;-76
2022/09/12 07:16:13;;;;;;;4.15;1.95;;;12.50;99.90;;;;;;5029556;28;20511;-75
2022/09/12 07:18:39;;;;;;;3.30;2.40;;;12.50;99.90;;;;;;5030203;28;20022;-76
2022/09/12 07:21:10;;;;;;;2.83;2.20;;;12.70;99.90;;;;;;5029435;28;20041;-76
2022/09/12 07:23:35;;;;;;;3.25;2.20;;;12.70;99.90;;;;;;5030259;28;20029;-79
2022/09/12 07:26:01;;;;;;;4.43;1.98;;;12.80;99.90;;;;;;5029585;28;20056;-79
2022/09/12 07:28:29;;;;;;;5.47;2.20;;;12.90;99.90;;;;;;5029732;28;20076;-78
2022/09/12 07:30:55;;;;;;;4.63;2.20;;;13.00;99.90;;;;;;5029907;28;20499;-78
2022/09/12 07:33:23;;;;;;;3.05;2.10;;;13.10;99.90;;;;;;5029831;28;20037;-79
2022/09/12 07:35:49;;;;;;;3.33;1.80;;;13.20;99.90;;;;;;5029570;28;20427;-79
2022/09/12 07:38:15;;;;;;;2.30;1.75;;;13.30;99.90;;;;;;5028898;28;20107;-79
2022/09/12 07:40:41;;;;;;;6.07;1.98;;;13.40;99.90;;;;;;5029326;28;20485;-79
2022/09/12 07:43:07;;;;;;;2.88;1.60;;;13.50;99.90;;;;;;5029421;28;20033;-79
2022/09/12 07:45:33;;;;;;;4.13;1.50;;;13.60;99.90;;;;;;5029207;28;20040;-79
2022/09/12 07:47:59;;;;;;;5.88;2.25;;;13.70;99.90;;;;;;5029121;28;20116;-78
2022/09/12 07:50:24;;;;;;;7.13;2.10;;;13.80;99.90;;;;;;5029634;28;20060;-79
2022/09/12 07:52:52;;;;;;;3.53;1.70;;;13.90;99.90;;;;;;5029191;28;20074;-79
2022/09/12 07:55:18;;;;;;;6.13;1.92;;;14.00;99.90;;;;;;5028994;28;20028;-79
2022/09/12 07:57:43;;;;;;;4.47;2.08;;;14.10;99.90;;;;;;5028138;28;20033;-79
2022/09/12 08:00:10;;;;;;;2.85;2.00;;;14.20;99.90;;;;;;5028827;28;20402;-79
2022/09/12 08:02:35;;;;;;;5.70;2.40;;;14.30;99.90;;;;;;5028764;28;20030;-79
2022/09/12 08:05:01;;;;;;;4.13;2.05;;;14.40;99.90;;;;;;5028354;28;20034;-79
2022/09/12 08:07:27;;;;;;;6.93;2.10;;;14.50;99.90;;;;;;5028797;28;20114;-79
2022/09/12 08:09:52;;;;;;;6.95;2.35;;;14.60;99.90;;;;;;5028717;28;20486;-78
2022/09/12 08:12:19;;;;;;;4.80;2.20;;;14.70;99.90;;;;;;5028652;28;20044;-79
2022/09/12 08:14:44;;;;;;;6.57;2.00;;;14.80;99.90;;;;;;5028892;28;20052;-79
2022/09/12 08:17:10;;;;;;;4.13;2.30;;;14.90;99.90;;;;;;5028070;28;20029;-79
2022/09/12 08:19:37;;;;;;;5.32;2.40;;;15.00;99.90;;;;;;5028948;28;20118;-78
2022/09/12 08:22:03;;;;;;;5.32;2.67;;;15.10;99.90;;;;;;5028524;28;20454;-79
2022/09/12 08:24:28;;;;;;;9.70;3.17;;;15.10;99.90;;;;;;5028719;28;20436;-79
2022/09/12 08:26:54;;;;;;;6.03;3.13;;;15.30;99.90;;;;;;5028801;28;20029;-78
2022/09/12 08:29:20;;;;;;;8.90;3.83;;;15.40;99.90;;;;;;5028359;28;20030;-79
2022/09/12 08:31:46;;;;;;;4.60;3.63;;;15.50;99.90;;;;;;5027566;28;20025;-78
2022/09/12 08:34:11;;;;;;;7.05;3.58;;;15.60;99.90;;;;;;5028885;28;20098;-79
2022/09/12 08:36:37;;;;;;;6.05;3.72;;;15.70;99.90;;;;;;5028194;28;20483;-79
2022/09/12 08:39:05;;;;;;;8.98;3.03;;;15.80;99.90;;;;;;5028076;28;20540;-79
2022/09/12 08:41:40;;;;;;;4.03;3.10;;;15.90;99.90;;;;;;5027859;28;20048;-75
2022/09/12 08:44:28;;;;;;;4.15;2.60;;;16.00;99.90;;;;;;5028244;28;20037;-75
2022/09/12 08:47:02;;;;;;;4.97;2.60;;;16.10;99.90;;;;;;5027835;28;20029;-75
2022/09/12 08:49:43;;;;;;;3.17;2.38;;;16.20;99.90;;;;;;5027789;28;20123;-75
2022/09/12 08:52:17;;;;;;;8.13;3.47;;;16.30;99.90;;;;;;5027974;28;20029;-75
2022/09/12 08:54:46;;;;;;;4.32;3.10;;;16.60;99.90;;;;;;5027539;28;20029;-75
2022/09/12 08:57:14;;;;;;;6.65;2.60;;;16.70;99.90;;;;;;5027773;28;20458;-75
2022/09/12 08:59:44;;;;;;;5.28;3.30;;;16.80;99.90;;;;;;5027857;28;20083;-75
2022/09/12 09:02:34;;;;;;;5.70;2.80;;;17.00;99.90;;;;;;5027708;28;20041;-75
2022/09/12 09:05:10;;;;;;;5.03;3.10;;;17.20;99.90;;;;;;5027896;28;20040;-76
2022/09/12 09:08:06;;;;;;;4.15;2.85;;;17.50;99.90;;;;;;5027522;28;20502;-76
2022/09/12 09:10:44;;;;;;;4.55;2.75;;;17.80;99.90;;;;;;5027452;28;20038;-76
2022/09/12 09:16:39;;;;;;;5.35;2.83;;;18.20;99.90;;;;;;5025351;28;20117;-76
2022/09/12 09:19:11;;;;;;;8.43;3.30;;;18.60;99.90;;;;;;5027672;28;20540;-76
2022/09/12 09:21:53;;;;;;;4.00;2.78;;;18.80;99.90;;;;;;5027733;28;20037;-76
2022/09/12 09:24:23;;;;;;;6.68;3.20;;;19.00;99.90;;;;;;5027392;28;20087;-76
2022/09/12 09:26:59;;;;;;;6.25;3.30;;;19.10;99.90;;;;;;5027327;28;20043;-76
2022/09/12 09:29:36;;;;;;;6.20;3.80;;;19.30;99.90;;;;;;5027736;28;20056;-77
2022/09/12 09:32:09;;;;;;;6.53;3.53;;;19.60;99.90;;;;;;5029453;28;20037;-77
2022/09/12 09:34:35;;;;;;;6.15;3.80;;;19.70;99.90;;;;;;5028946;28;20044;-77
2022/09/12 09:37:04;;;;;;;8.60;3.47;;;19.90;99.90;;;;;;5028893;28;20037;-77
2022/09/12 09:39:51;;;;;;;5.10;3.70;;;20.00;99.90;;;;;;5028745;28;20592;-77
2022/09/12 09:42:22;;;;;;;6.95;3.47;;;20.20;99.90;;;;;;5029015;28;20393;-77
2022/09/12 09:44:47;;;;;;;6.63;3.45;;;20.20;99.90;;;;;;5027245;28;20036;-82
2022/09/12 09:47:14;;;;;;;6.78;3.20;;;20.20;99.90;;;;;;5027353;28;20033;-79
2022/09/12 09:49:40;;;;;;;7.82;3.45;;;20.30;99.90;;;;;;5027474;28;20040;-79
2022/09/12 09:52:07;;;;;;;8.73;2.80;;;20.30;99.90;;;;;;5027144;28;20033;-79
2022/09/12 09:54:35;;;;;;;6.43;2.70;;;20.40;99.90;;;;;;5026679;28;20099;-79
2022/09/12 09:57:01;;;;;;;3.60;2.72;;;20.60;99.90;;;;;;5026636;28;20049;-79
2022/09/12 09:59:31;;;;;;;5.93;3.05;;;20.70;99.90;;;;;;5027139;28;20463;-80
2022/09/12 10:02:13;;;;;;;7.35;2.70;;;20.70;99.90;;;;;;5026765;28;20064;-80
2022/09/12 10:04:40;;;;;;;6.00;3.13;;;21.00;99.90;;;;;;5026864;28;20025;-79
2022/09/12 10:07:15;;;;;;;4.40;2.55;;;21.00;99.90;;;;;;5027042;28;20382;-79
2022/09/12 10:09:41;;;;;;;3.70;2.67;;;21.00;99.90;;;;;;5026818;28;20038;-79
2022/09/12 10:12:27;;;;;;;4.30;1.98;;;21.30;99.90;;;;;;5026622;28;20032;-79
2022/09/12 10:15:02;;;;;;;6.30;2.85;;;21.50;99.90;;;;;;5026821;28;20076;-82
2022/09/12 10:17:38;;;;;;;2.80;1.77;;;21.60;99.90;;;;;;5026604;28;20033;-82
2022/09/12 10:20:24;;;;;;;2.65;2.10;;;21.70;99.90;;;;;;5028669;28;20649;-81
2022/09/12 10:22:50;;;;;;;3.97;2.53;;;21.80;99.90;;;;;;5031443;28;20501;-80
2022/09/12 10:25:19;;;;;;;4.45;2.20;;;22.00;99.90;;;;;;5031195;28;20037;-80
2022/09/12 10:28:01;;;;;;;4.60;2.00;;;22.10;99.90;;;;;;5030555;28;20030;-79
2022/09/12 10:30:27;;;;;;;2.38;1.80;;;22.10;99.90;;;;;;5029014;28;20037;-79
2022/09/12 10:33:14;;;;;;;3.20;2.00;;;22.20;99.90;;;;;;5030288;28;20033;-80
2022/09/12 10:35:47;;;;;;;4.32;2.20;;;22.30;99.90;;;;;;5031291;28;20105;-79
2022/09/12 10:38:26;;;;;;;3.00;1.90;;;22.10;99.90;;;;;;5031273;28;20013;-79
2022/09/12 10:41:02;;;;;;;4.07;2.05;;;22.30;99.90;;;;;;5030254;28;20470;-80
2022/09/12 10:43:36;;;;;;;3.55;1.90;;;22.50;99.90;;;;;;5030473;28;20391;-80
2022/09/12 10:46:16;;;;;;;3.70;2.00;;;22.80;99.90;;;;;;5030032;28;20431;-80
2022/09/12 10:48:44;;;;;;;3.38;2.30;;;22.90;99.90;;;;;;5030358;28;20534;-80
2022/09/12 10:51:24;;;;;;;4.80;2.30;;;23.00;99.90;;;;;;5030939;28;20044;-80
2022/09/12 10:54:11;;;;;;;3.88;2.30;;;22.90;99.90;;;;;;5029967;28;20133;-79
2022/09/12 10:57:00;;;;;;;2.95;1.75;;;22.90;99.90;;;;;;5030324;28;20051;-80
2022/09/12 11:00:00;;;;;;;3.25;2.30;;;23.20;99.90;;;;;;5029342;28;20033;-80
2022/09/12 11:02:48;;;;;;;6.05;1.95;;;23.40;99.90;;;;;;5029860;28;20025;-80
2022/09/12 11:05:42;;;;;;;2.95;1.90;;;23.40;99.90;;;;;;5029368;28;20386;-80
2022/09/12 11:08:36;;;;;;;3.72;1.80;;;23.30;99.90;;;;;;5030165;28;20029;-80
2022/09/12 11:11:09;;;;;;;4.75;1.80;;;23.30;99.90;;;;;;5029766;28;20033;-80
2022/09/12 11:13:54;;;;;;;4.22;1.70;;;23.60;99.90;;;;;;5029660;28;20052;-80
2022/09/12 11:16:25;;;;;;;2.42;1.65;;;23.50;99.90;;;;;;5029777;28;20021;-79
2022/09/12 11:19:02;;;;;;;4.30;1.90;;;23.70;99.90;;;;;;5029624;28;20029;-80
2022/09/12 11:21:46;;;;;;;2.17;1.55;;;23.70;99.90;;;;;;5029516;28;20025;-79
2022/09/12 11:24:34;;;;;;;4.25;1.77;;;23.80;99.90;;;;;;5029342;28;20038;-80
2022/09/12 11:27:10;;;;;;;4.13;2.00;;;23.70;99.90;;;;;;5029187;28;20415;-80
2022/09/12 11:29:49;;;;;;;2.75;1.80;;;23.90;99.90;;;;;;5029835;28;20036;-80
2022/09/12 11:32:49;;;;;;;3.30;2.10;;;23.90;99.90;;;;;;5029172;28;20022;-80
2022/09/12 11:35:14;;;;;;;3.25;1.85;;;23.70;99.90;;;;;;5030140;28;20410;-80
2022/09/12 11:38:08;;;;;;;4.05;1.67;;;23.90;99.90;;;;;;5029085;28;20478;-80
2022/09/12 11:40:41;;;;;;;3.05;1.83;;;24.10;99.90;;;;;;5029976;28;20536;-80
2022/09/12 11:43:23;;;;;;;2.85;1.65;;;24.20;99.90;;;;;;5029614;28;20442;-80
2022/09/12 11:45:49;;;;;;;3.83;1.80;;;24.30;99.90;;;;;;5028964;28;20509;-80
2022/09/12 11:48:36;;;;;;;2.50;1.80;;;24.60;99.90;;;;;;5029730;28;20478;-80
2022/09/12 11:51:06;;;;;;;4.07;1.60;;;24.80;99.90;;;;;;5029423;28;20025;-80
2022/09/12 11:53:37;;;;;;;2.60;1.70;;;24.80;99.90;;;;;;5028668;28;20030;-80
2022/09/12 11:56:17;;;;;;;2.60;1.92;;;25.10;99.90;;;;;;5028868;28;20053;-80
2022/09/12 11:58:49;;;;;;;3.13;1.67;;;25.40;99.90;;;;;;5028871;28;20025;-80
2022/09/12 12:01:22;;;;;;;3.92;2.53;;;25.20;99.90;;;;;;5028718;28;20103;-80
2022/09/12 12:03:48;;;;;;;3.08;2.00;;;25.20;99.90;;;;;;5028924;28;20025;-80
2022/09/12 12:06:38;;;;;;;4.15;1.98;;;24.90;99.90;;;;;;5028728;28;20116;-80
2022/09/12 12:09:04;;;;;;;2.90;1.90;;;24.80;99.90;;;;;;5029017;28;20025;-80
2022/09/12 12:11:32;;;;;;;1.88;1.50;;;25.00;99.90;;;;;;5028585;28;20038;-79
2022/09/12 12:14:00;;;;;;;4.07;1.80;;;25.10;99.90;;;;;;5028960;28;20029;-80
2022/09/12 12:16:27;;;;;;;3.28;1.77;;;25.40;99.90;;;;;;5028314;28;20083;-80
2022/09/12 12:18:55;;;;;;;3.35;2.03;;;25.40;99.90;;;;;;5028289;28;20021;-80
2022/09/12 12:21:39;;;;;;;3.03;1.70;;;25.20;99.90;;;;;;5030028;28;20053;-77
2022/09/12 12:24:07;;;;;;;4.00;1.80;;;25.10;99.90;;;;;;5030785;28;20029;-77
2022/09/12 12:26:39;;;;;;;3.72;1.85;;;25.20;99.90;;;;;;5031015;28;20179;-77
2022/09/12 12:29:31;;;;;;;2.20;1.70;;;25.50;99.90;;;;;;5030510;28;20029;-77
2022/09/12 12:32:02;;;;;;;3.65;1.67;;;25.60;99.90;;;;;;5030516;28;20029;-78
2022/09/12 12:34:31;;;;;;;2.42;1.80;;;25.50;99.90;;;;;;5030406;28;20076;-76
2022/09/12 12:36:58;;;;;;;2.90;1.73;;;25.40;99.90;;;;;;5029108;28;20091;-77
2022/09/12 12:39:33;;;;;;;3.72;2.90;;;25.60;99.90;;;;;;5029988;28;20032;-77
2022/09/12 12:41:59;;;;;;;4.18;2.08;;;25.40;99.90;;;;;;5029250;28;20030;-77
2022/09/12 12:44:43;;;;;;;2.40;1.60;;;25.50;99.90;;;;;;5030426;28;20033;-77
2022/09/12 12:47:22;;;;;;;1.73;1.37;;;25.60;99.90;;;;;;5030452;28;20076;-77
2022/09/12 12:50:03;;;;;;;2.40;1.73;;;25.60;99.90;;;;;;5030376;28;20090;-77
2022/09/12 12:52:46;;;;;;;4.32;2.88;;;25.40;99.90;;;;;;5029805;28;20028;-77
2022/09/12 12:55:28;;;;;;;4.07;2.03;;;25.30;99.90;;;;;;5029899;28;20029;-78
2022/09/12 12:57:56;;;;;;;5.30;1.90;;;25.30;99.90;;;;;;5029511;28;20109;-77
2022/09/12 13:00:28;;;;;;;3.53;1.83;;;25.10;99.90;;;;;;5029992;28;20538;-77
2022/09/12 13:03:06;;;;;;;2.25;1.70;;;25.20;99.90;;;;;;5029133;28;20025;-80
2022/09/12 13:05:45;;;;;;;3.05;1.58;;;25.30;99.90;;;;;;5027205;28;20076;-80
2022/09/12 13:08:16;;;;;;;2.53;1.60;;;25.20;99.90;;;;;;5027788;28;20030;-80
2022/09/12 13:10:56;;;;;;;1.70;1.50;;;25.30;99.90;;;;;;5027819;28;20059;-80
2022/09/12 13:13:36;;;;;;;3.65;1.70;;;25.40;99.90;;;;;;5027129;28;20572;-80
2022/09/12 13:16:02;;;;;;;2.83;1.45;;;25.60;99.90;;;;;;5027431;28;20026;-81
2022/09/12 13:18:48;;;;;;;5.10;1.98;;;25.70;99.90;;;;;;5027730;28;20029;-80